sensor_id;sensor_type;location;lat;lon;timestamp;P1;durP1;ratioP1;P2;durP2;ratioP2
10416;SDS011;62605;49.432;8.680;2023-04-15T00:00:24;1.40;;;1.30;;
10416;SDS011;62605;49.432;8.680;2023-04-15T00:02:53;2.83;;;1.20;;
10416;SDS011;62605;49.432;8.680;2023-04-15T00:05:20;1.67;;;1.13;;
10416;SDS011;62605;49.432;8.680;2023-04-15T00:07:51;1.03;;;0.90;;
10416;SDS011;62605;49.432;8.680;2023-04-15T00:10:20;1.50;;;1.40;;
10416;SDS011;62605;49.432;8.680;2023-04-15T00:12:48;1.20;;;1.10;;
10416;SDS011;62605;49.432;8.680;2023-04-15T00:15:17;1.20;;;1.10;;
10416;SDS011;62605;49.432;8.680;2023-04-15T00:17:48;1.40;;;1.30;;
10416;SDS011;62605;49.432;8.680;2023-04-15T00:20:16;1.17;;;1.13;;
10416;SDS011;62605;49.432;8.680;2023-04-15T00:22:46;1.97;;;1.47;;
10416;SDS011;62605;49.432;8.680;2023-04-15T00:25:15;1.23;;;0.87;;
10416;SDS011;62605;49.432;8.680;2023-04-15T00:27:44;1.07;;;0.93;;
10416;SDS011;62605;49.432;8.680;2023-04-15T00:30:11;0.90;;;0.90;;
10416;SDS011;62605;49.432;8.680;2023-04-15T00:32:41;2.23;;;1.23;;
10416;SDS011;62605;49.432;8.680;2023-04-15T00:35:08;1.13;;;1.03;;
10416;SDS011;62605;49.432;8.680;2023-04-15T00:37:37;1.53;;;1.10;;
10416;SDS011;62605;49.432;8.680;2023-04-15T00:40:07;4.97;;;1.20;;
10416;SDS011;62605;49.432;8.680;2023-04-15T00:42:40;1.10;;;1.10;;
10416;SDS011;62605;49.432;8.680;2023-04-15T00:45:09;1.77;;;1.10;;
10416;SDS011;62605;49.432;8.680;2023-04-15T00:47:36;1.50;;;1.20;;
10416;SDS011;62605;49.432;8.680;2023-04-15T00:50:05;2.73;;;1.10;;
10416;SDS011;62605;49.432;8.680;2023-04-15T00:52:33;3.70;;;1.57;;
10416;SDS011;62605;49.432;8.680;2023-04-15T00:55:02;2.37;;;1.83;;
10416;SDS011;62605;49.432;8.680;2023-04-15T00:57:31;1.77;;;1.40;;
10416;SDS011;62605;49.432;8.680;2023-04-15T01:00:00;1.40;;;1.30;;
10416;SDS011;62605;49.432;8.680;2023-04-15T01:02:30;1.63;;;1.03;;
10416;SDS011;62605;49.432;8.680;2023-04-15T01:04:59;1.50;;;1.40;;
10416;SDS011;62605;49.432;8.680;2023-04-15T01:07:29;1.77;;;1.00;;
10416;SDS011;62605;49.432;8.680;2023-04-15T01:09:57;0.90;;;0.90;;
10416;SDS011;62605;49.432;8.680;2023-04-15T01:12:26;2.20;;;1.13;;
10416;SDS011;62605;49.432;8.680;2023-04-15T01:14:58;1.70;;;1.30;;
10416;SDS011;62605;49.432;8.680;2023-04-15T01:17:26;2.90;;;1.50;;
10416;SDS011;62605;49.432;8.680;2023-04-15T01:19:55;3.13;;;1.87;;
10416;SDS011;62605;49.432;8.680;2023-04-15T01:22:22;2.33;;;1.50;;
10416;SDS011;62605;49.432;8.680;2023-04-15T01:24:53;1.70;;;1.43;;
10416;SDS011;62605;49.432;8.680;2023-04-15T01:27:33;2.80;;;1.43;;
10416;SDS011;62605;49.432;8.680;2023-04-15T01:30:05;5.30;;;1.77;;
10416;SDS011;62605;49.432;8.680;2023-04-15T01:32:36;2.73;;;1.60;;
10416;SDS011;62605;49.432;8.680;2023-04-15T01:35:03;4.80;;;1.73;;
10416;SDS011;62605;49.432;8.680;2023-04-15T01:37:33;2.20;;;1.70;;
10416;SDS011;62605;49.432;8.680;2023-04-15T01:40:00;1.83;;;1.70;;
10416;SDS011;62605;49.432;8.680;2023-04-15T01:42:31;2.87;;;1.00;;
10416;SDS011;62605;49.432;8.680;2023-04-15T01:45:02;2.40;;;1.40;;
10416;SDS011;62605;49.432;8.680;2023-04-15T01:47:30;1.20;;;1.10;;
10416;SDS011;62605;49.432;8.680;2023-04-15T01:49:57;2.20;;;1.30;;
10416;SDS011;62605;49.432;8.680;2023-04-15T01:52:25;2.63;;;1.43;;
10416;SDS011;62605;49.432;8.680;2023-04-15T01:54:52;1.50;;;1.40;;
10416;SDS011;62605;49.432;8.680;2023-04-15T01:57:21;1.00;;;1.00;;
10416;SDS011;62605;49.432;8.680;2023-04-15T01:59:48;3.23;;;1.43;;
10416;SDS011;62605;49.432;8.680;2023-04-15T02:02:17;2.60;;;1.10;;
10416;SDS011;62605;49.432;8.680;2023-04-15T02:04:46;1.57;;;0.93;;
10416;SDS011;62605;49.432;8.680;2023-04-15T02:07:16;1.20;;;1.10;;
10416;SDS011;62605;49.432;8.680;2023-04-15T02:09:44;2.90;;;1.10;;
10416;SDS011;62605;49.432;8.680;2023-04-15T02:12:11;0.70;;;0.70;;
10416;SDS011;62605;49.432;8.680;2023-04-15T02:14:39;1.20;;;1.10;;
10416;SDS011;62605;49.432;8.680;2023-04-15T02:17:06;2.90;;;2.17;;
10416;SDS011;62605;49.432;8.680;2023-04-15T02:19:37;2.07;;;1.60;;
10416;SDS011;62605;49.432;8.680;2023-04-15T02:22:06;1.87;;;1.57;;
10416;SDS011;62605;49.432;8.680;2023-04-15T02:24:34;4.13;;;1.80;;
10416;SDS011;62605;49.432;8.680;2023-04-15T02:27:01;3.33;;;1.33;;
10416;SDS011;62605;49.432;8.680;2023-04-15T02:29:30;3.07;;;1.70;;
10416;SDS011;62605;49.432;8.680;2023-04-15T02:31:57;2.17;;;1.70;;
10416;SDS011;62605;49.432;8.680;2023-04-15T02:34:26;3.03;;;1.60;;
10416;SDS011;62605;49.432;8.680;2023-04-15T02:36:54;1.87;;;1.57;;
10416;SDS011;62605;49.432;8.680;2023-04-15T02:39:23;1.57;;;1.47;;
10416;SDS011;62605;49.432;8.680;2023-04-15T02:41:50;2.00;;;1.30;;
10416;SDS011;62605;49.432;8.680;2023-04-15T02:44:18;2.03;;;1.80;;
10416;SDS011;62605;49.432;8.680;2023-04-15T02:46:48;2.23;;;1.50;;
10416;SDS011;62605;49.432;8.680;2023-04-15T02:49:19;1.93;;;1.50;;
10416;SDS011;62605;49.432;8.680;2023-04-15T02:51:49;2.33;;;1.40;;
10416;SDS011;62605;49.432;8.680;2023-04-15T02:54:20;1.27;;;1.17;;
10416;SDS011;62605;49.432;8.680;2023-04-15T02:56:48;2.20;;;1.57;;
10416;SDS011;62605;49.432;8.680;2023-04-15T02:59:16;1.50;;;1.30;;
10416;SDS011;62605;49.432;8.680;2023-04-15T03:01:45;2.77;;;1.67;;
10416;SDS011;62605;49.432;8.680;2023-04-15T03:04:12;2.53;;;1.30;;
10416;SDS011;62605;49.432;8.680;2023-04-15T03:06:40;2.47;;;1.53;;
10416;SDS011;62605;49.432;8.680;2023-04-15T03:09:07;2.10;;;1.30;;
10416;SDS011;62605;49.432;8.680;2023-04-15T03:11:37;3.23;;;1.37;;
10416;SDS011;62605;49.432;8.680;2023-04-15T03:14:06;2.80;;;0.97;;
10416;SDS011;62605;49.432;8.680;2023-04-15T03:16:36;1.30;;;1.20;;
10416;SDS011;62605;49.432;8.680;2023-04-15T03:19:03;1.63;;;1.20;;
10416;SDS011;62605;49.432;8.680;2023-04-15T03:21:32;3.40;;;1.23;;
10416;SDS011;62605;49.432;8.680;2023-04-15T03:24:01;3.83;;;1.23;;
10416;SDS011;62605;49.432;8.680;2023-04-15T03:26:31;2.57;;;1.00;;
10416;SDS011;62605;49.432;8.680;2023-04-15T03:29:02;2.10;;;1.10;;
10416;SDS011;62605;49.432;8.680;2023-04-15T03:31:30;2.43;;;1.60;;
10416;SDS011;62605;49.432;8.680;2023-04-15T03:34:01;1.87;;;1.40;;
10416;SDS011;62605;49.432;8.680;2023-04-15T03:36:29;3.30;;;1.50;;
10416;SDS011;62605;49.432;8.680;2023-04-15T03:38:58;1.20;;;1.10;;
10416;SDS011;62605;49.432;8.680;2023-04-15T03:41:26;1.30;;;1.00;;
10416;SDS011;62605;49.432;8.680;2023-04-15T03:43:54;2.60;;;1.53;;
10416;SDS011;62605;49.432;8.680;2023-04-15T03:46:23;1.63;;;1.40;;
10416;SDS011;62605;49.432;8.680;2023-04-15T03:48:51;2.20;;;1.10;;
10416;SDS011;62605;49.432;8.680;2023-04-15T03:51:19;1.30;;;1.20;;
10416;SDS011;62605;49.432;8.680;2023-04-15T03:53:48;1.30;;;1.20;;
10416;SDS011;62605;49.432;8.680;2023-04-15T03:56:16;2.50;;;1.20;;
10416;SDS011;62605;49.432;8.680;2023-04-15T03:58:44;1.30;;;1.17;;
10416;SDS011;62605;49.432;8.680;2023-04-15T04:01:13;3.63;;;1.77;;
10416;SDS011;62605;49.432;8.680;2023-04-15T04:03:41;1.97;;;1.57;;
10416;SDS011;62605;49.432;8.680;2023-04-15T04:06:10;5.37;;;1.60;;
10416;SDS011;62605;49.432;8.680;2023-04-15T04:08:38;1.97;;;1.43;;
10416;SDS011;62605;49.432;8.680;2023-04-15T04:11:05;2.73;;;1.63;;
10416;SDS011;62605;49.432;8.680;2023-04-15T04:13:33;2.00;;;1.70;;
10416;SDS011;62605;49.432;8.680;2023-04-15T04:16:00;1.77;;;1.63;;
10416;SDS011;62605;49.432;8.680;2023-04-15T04:18:29;3.73;;;2.03;;
10416;SDS011;62605;49.432;8.680;2023-04-15T04:21:00;2.77;;;1.97;;
10416;SDS011;62605;49.432;8.680;2023-04-15T04:23:28;3.53;;;1.53;;
10416;SDS011;62605;49.432;8.680;2023-04-15T04:25:58;2.03;;;1.37;;
10416;SDS011;62605;49.432;8.680;2023-04-15T04:28:27;1.87;;;1.77;;
10416;SDS011;62605;49.432;8.680;2023-04-15T04:30:55;2.53;;;1.70;;
10416;SDS011;62605;49.432;8.680;2023-04-15T04:33:22;1.57;;;1.47;;
10416;SDS011;62605;49.432;8.680;2023-04-15T04:35:53;2.17;;;1.90;;
10416;SDS011;62605;49.432;8.680;2023-04-15T04:38:23;1.50;;;1.40;;
10416;SDS011;62605;49.432;8.680;2023-04-15T04:40:50;2.00;;;1.30;;
10416;SDS011;62605;49.432;8.680;2023-04-15T04:43:18;1.97;;;1.40;;
10416;SDS011;62605;49.432;8.680;2023-04-15T04:45:47;4.13;;;1.63;;
10416;SDS011;62605;49.432;8.680;2023-04-15T04:48:15;2.90;;;1.97;;
10416;SDS011;62605;49.432;8.680;2023-04-15T04:50:44;1.73;;;1.30;;
10416;SDS011;62605;49.432;8.680;2023-04-15T04:53:11;4.90;;;2.03;;
10416;SDS011;62605;49.432;8.680;2023-04-15T04:55:41;3.17;;;1.83;;
10416;SDS011;62605;49.432;8.680;2023-04-15T04:58:08;5.17;;;1.60;;
10416;SDS011;62605;49.432;8.680;2023-04-15T05:00:36;4.73;;;1.70;;
10416;SDS011;62605;49.432;8.680;2023-04-15T05:49:34;4.50;;;2.00;;
10416;SDS011;62605;49.432;8.680;2023-04-15T05:52:01;3.10;;;2.57;;
10416;SDS011;62605;49.432;8.680;2023-04-15T05:54:28;2.07;;;1.83;;
10416;SDS011;62605;49.432;8.680;2023-04-15T05:56:55;4.13;;;2.17;;
10416;SDS011;62605;49.432;8.680;2023-04-15T05:59:22;2.10;;;1.80;;
10416;SDS011;62605;49.432;8.680;2023-04-15T06:01:49;9.50;;;2.50;;
10416;SDS011;62605;49.432;8.680;2023-04-15T06:04:17;2.70;;;2.10;;
10416;SDS011;62605;49.432;8.680;2023-04-15T06:06:47;2.47;;;2.00;;
10416;SDS011;62605;49.432;8.680;2023-04-15T06:09:14;2.37;;;1.83;;
10416;SDS011;62605;49.432;8.680;2023-04-15T06:11:42;3.13;;;2.00;;
10416;SDS011;62605;49.432;8.680;2023-04-15T06:14:09;3.13;;;2.43;;
10416;SDS011;62605;49.432;8.680;2023-04-15T06:16:36;3.73;;;2.47;;
10416;SDS011;62605;49.432;8.680;2023-04-15T06:19:04;5.37;;;2.17;;
10416;SDS011;62605;49.432;8.680;2023-04-15T06:21:31;2.40;;;1.90;;
10416;SDS011;62605;49.432;8.680;2023-04-15T06:24:00;2.67;;;2.30;;
10416;SDS011;62605;49.432;8.680;2023-04-15T06:26:27;6.00;;;2.70;;
10416;SDS011;62605;49.432;8.680;2023-04-15T06:28:55;4.03;;;2.87;;
10416;SDS011;62605;49.432;8.680;2023-04-15T06:31:23;2.70;;;2.40;;
10416;SDS011;62605;49.432;8.680;2023-04-15T06:33:50;4.83;;;3.13;;
10416;SDS011;62605;49.432;8.680;2023-04-15T06:36:18;3.47;;;2.43;;
10416;SDS011;62605;49.432;8.680;2023-04-15T06:38:45;4.63;;;2.07;;
10416;SDS011;62605;49.432;8.680;2023-04-15T06:41:13;4.73;;;1.93;;
10416;SDS011;62605;49.432;8.680;2023-04-15T06:43:41;7.07;;;2.73;;
10416;SDS011;62605;49.432;8.680;2023-04-15T06:46:08;3.70;;;1.90;;
10416;SDS011;62605;49.432;8.680;2023-04-15T06:48:36;3.93;;;2.13;;
10416;SDS011;62605;49.432;8.680;2023-04-15T06:51:03;3.70;;;2.20;;
10416;SDS011;62605;49.432;8.680;2023-04-15T06:53:31;2.90;;;2.30;;
10416;SDS011;62605;49.432;8.680;2023-04-15T06:55:59;3.93;;;2.10;;
10416;SDS011;62605;49.432;8.680;2023-04-15T06:58:29;5.00;;;2.30;;
10416;SDS011;62605;49.432;8.680;2023-04-15T07:00:56;2.20;;;2.00;;
10416;SDS011;62605;49.432;8.680;2023-04-15T07:03:23;2.43;;;2.23;;
10416;SDS011;62605;49.432;8.680;2023-04-15T07:05:51;3.43;;;2.57;;
10416;SDS011;62605;49.432;8.680;2023-04-15T07:08:18;2.23;;;2.03;;
10416;SDS011;62605;49.432;8.680;2023-04-15T07:10:46;6.13;;;2.30;;
10416;SDS011;62605;49.432;8.680;2023-04-15T07:13:13;4.73;;;2.57;;
10416;SDS011;62605;49.432;8.680;2023-04-15T07:15:41;5.20;;;2.50;;
10416;SDS011;62605;49.432;8.680;2023-04-15T07:18:10;2.93;;;2.37;;
10416;SDS011;62605;49.432;8.680;2023-04-15T07:20:40;4.53;;;2.10;;
10416;SDS011;62605;49.432;8.680;2023-04-15T07:23:07;3.93;;;2.90;;
10416;SDS011;62605;49.432;8.680;2023-04-15T07:25:36;4.50;;;2.60;;
10416;SDS011;62605;49.432;8.680;2023-04-15T07:28:03;7.87;;;3.20;;
10416;SDS011;62605;49.432;8.680;2023-04-15T07:30:30;4.30;;;2.80;;
10416;SDS011;62605;49.432;8.680;2023-04-15T07:33:00;3.77;;;2.70;;
10416;SDS011;62605;49.432;8.680;2023-04-15T07:35:27;4.97;;;2.30;;
10416;SDS011;62605;49.432;8.680;2023-04-15T07:37:54;3.23;;;2.50;;
10416;SDS011;62605;49.432;8.680;2023-04-15T07:40:21;2.40;;;1.97;;
10416;SDS011;62605;49.432;8.680;2023-04-15T07:42:48;3.77;;;2.20;;
10416;SDS011;62605;49.432;8.680;2023-04-15T07:45:15;3.97;;;2.30;;
10416;SDS011;62605;49.432;8.680;2023-04-15T07:47:42;4.17;;;2.60;;
10416;SDS011;62605;49.432;8.680;2023-04-15T07:50:12;3.30;;;2.40;;
10416;SDS011;62605;49.432;8.680;2023-04-15T07:52:41;3.83;;;2.70;;
10416;SDS011;62605;49.432;8.680;2023-04-15T07:55:08;3.10;;;2.53;;
10416;SDS011;62605;49.432;8.680;2023-04-15T07:57:35;4.50;;;2.90;;
10416;SDS011;62605;49.432;8.680;2023-04-15T08:00:03;4.77;;;2.97;;
10416;SDS011;62605;49.432;8.680;2023-04-15T08:02:31;3.97;;;2.73;;
10416;SDS011;62605;49.432;8.680;2023-04-15T08:04:59;3.87;;;2.30;;
10416;SDS011;62605;49.432;8.680;2023-04-15T08:07:29;7.03;;;2.80;;
10416;SDS011;62605;49.432;8.680;2023-04-15T08:09:56;3.43;;;2.50;;
10416;SDS011;62605;49.432;8.680;2023-04-15T08:12:23;5.20;;;2.70;;
10416;SDS011;62605;49.432;8.680;2023-04-15T08:14:51;3.70;;;2.47;;
10416;SDS011;62605;49.432;8.680;2023-04-15T08:17:18;7.50;;;2.67;;
10416;SDS011;62605;49.432;8.680;2023-04-15T08:19:46;3.13;;;2.17;;
10416;SDS011;62605;49.432;8.680;2023-04-15T08:22:13;3.87;;;2.37;;
10416;SDS011;62605;49.432;8.680;2023-04-15T08:24:42;2.83;;;2.33;;
10416;SDS011;62605;49.432;8.680;2023-04-15T08:27:10;3.90;;;2.80;;
10416;SDS011;62605;49.432;8.680;2023-04-15T08:29:37;6.07;;;2.70;;
10416;SDS011;62605;49.432;8.680;2023-04-15T08:32:05;3.63;;;2.93;;
10416;SDS011;62605;49.432;8.680;2023-04-15T08:34:32;3.70;;;2.53;;
10416;SDS011;62605;49.432;8.680;2023-04-15T08:37:00;3.13;;;2.73;;
10416;SDS011;62605;49.432;8.680;2023-04-15T08:39:27;7.13;;;2.63;;
10416;SDS011;62605;49.432;8.680;2023-04-15T08:41:58;4.53;;;2.43;;
10416;SDS011;62605;49.432;8.680;2023-04-15T08:44:27;3.30;;;2.37;;
10416;SDS011;62605;49.432;8.680;2023-04-15T08:46:56;5.27;;;2.60;;
10416;SDS011;62605;49.432;8.680;2023-04-15T08:49:28;2.60;;;2.20;;
10416;SDS011;62605;49.432;8.680;2023-04-15T08:51:57;4.60;;;2.63;;
10416;SDS011;62605;49.432;8.680;2023-04-15T08:54:25;6.00;;;2.40;;
10416;SDS011;62605;49.432;8.680;2023-04-15T08:56:53;4.00;;;2.90;;
10416;SDS011;62605;49.432;8.680;2023-04-15T08:59:23;3.47;;;2.80;;
10416;SDS011;62605;49.432;8.680;2023-04-15T09:01:50;4.53;;;2.80;;
10416;SDS011;62605;49.432;8.680;2023-04-15T09:04:18;5.40;;;2.83;;
10416;SDS011;62605;49.432;8.680;2023-04-15T09:06:45;3.40;;;2.80;;
10416;SDS011;62605;49.432;8.680;2023-04-15T09:09:13;3.17;;;2.53;;
10416;SDS011;62605;49.432;8.680;2023-04-15T09:11:40;2.93;;;2.63;;
10416;SDS011;62605;49.432;8.680;2023-04-15T09:14:10;4.00;;;2.50;;
10416;SDS011;62605;49.432;8.680;2023-04-15T09:16:57;4.67;;;2.87;;
10416;SDS011;62605;49.432;8.680;2023-04-15T09:19:25;4.40;;;2.70;;
10416;SDS011;62605;49.432;8.680;2023-04-15T09:21:53;2.87;;;2.37;;
10416;SDS011;62605;49.432;8.680;2023-04-15T09:24:21;3.70;;;2.53;;
10416;SDS011;62605;49.432;8.680;2023-04-15T09:26:51;2.80;;;2.23;;
10416;SDS011;62605;49.432;8.680;2023-04-15T09:29:24;3.00;;;2.50;;
10416;SDS011;62605;49.432;8.680;2023-04-15T09:31:51;3.97;;;2.23;;
10416;SDS011;62605;49.432;8.680;2023-04-15T09:34:18;2.50;;;2.30;;
10416;SDS011;62605;49.432;8.680;2023-04-15T09:36:53;2.90;;;2.20;;
10416;SDS011;62605;49.432;8.680;2023-04-15T09:39:21;3.03;;;2.17;;
10416;SDS011;62605;49.432;8.680;2023-04-15T09:42:02;3.17;;;2.20;;
10416;SDS011;62605;49.432;8.680;2023-04-15T09:44:33;2.57;;;2.10;;
10416;SDS011;62605;49.432;8.680;2023-04-15T09:47:00;2.13;;;1.93;;
10416;SDS011;62605;49.432;8.680;2023-04-15T09:49:28;2.97;;;2.30;;
10416;SDS011;62605;49.432;8.680;2023-04-15T09:51:59;2.40;;;2.20;;
10416;SDS011;62605;49.432;8.680;2023-04-15T09:54:36;4.13;;;2.27;;
10416;SDS011;62605;49.432;8.680;2023-04-15T09:57:04;2.10;;;1.80;;
10416;SDS011;62605;49.432;8.680;2023-04-15T09:59:34;2.57;;;2.07;;
10416;SDS011;62605;49.432;8.680;2023-04-15T10:02:02;2.90;;;2.53;;
10416;SDS011;62605;49.432;8.680;2023-04-15T10:04:32;2.50;;;2.30;;
10416;SDS011;62605;49.432;8.680;2023-04-15T10:07:02;5.35;;;2.20;;
10416;SDS011;62605;49.432;8.680;2023-04-15T10:09:31;4.50;;;2.80;;
10416;SDS011;62605;49.432;8.680;2023-04-15T10:11:58;4.43;;;2.50;;
10416;SDS011;62605;49.432;8.680;2023-04-15T10:14:27;3.63;;;2.35;;
10416;SDS011;62605;49.432;8.680;2023-04-15T10:17:00;3.22;;;2.70;;
10416;SDS011;62605;49.432;8.680;2023-04-15T10:19:29;4.82;;;2.47;;
10416;SDS011;62605;49.432;8.680;2023-04-15T10:21:58;3.70;;;2.60;;
10416;SDS011;62605;49.432;8.680;2023-04-15T10:24:27;4.20;;;2.47;;
10416;SDS011;62605;49.432;8.680;2023-04-15T10:26:55;7.43;;;3.10;;
10416;SDS011;62605;49.432;8.680;2023-04-15T10:29:24;4.25;;;2.75;;
10416;SDS011;62605;49.432;8.680;2023-04-15T10:31:52;4.40;;;3.17;;
10416;SDS011;62605;49.432;8.680;2023-04-15T10:34:22;4.05;;;2.97;;
10416;SDS011;62605;49.432;8.680;2023-04-15T10:36:50;7.57;;;3.47;;
10416;SDS011;62605;49.432;8.680;2023-04-15T10:42:09;5.18;;;2.70;;
10416;SDS011;62605;49.432;8.680;2023-04-15T10:44:37;5.05;;;3.10;;
10416;SDS011;62605;49.432;8.680;2023-04-15T10:47:10;3.47;;;2.38;;
10416;SDS011;62605;49.432;8.680;2023-04-15T10:49:46;4.43;;;2.83;;
10416;SDS011;62605;49.432;8.680;2023-04-15T10:52:15;4.00;;;3.00;;
10416;SDS011;62605;49.432;8.680;2023-04-15T10:54:43;4.50;;;2.40;;
10416;SDS011;62605;49.432;8.680;2023-04-15T10:57:15;4.40;;;2.80;;
10416;SDS011;62605;49.432;8.680;2023-04-15T11:00:00;2.70;;;2.45;;
10416;SDS011;62605;49.432;8.680;2023-04-15T11:02:39;5.10;;;2.33;;
10416;SDS011;62605;49.432;8.680;2023-04-15T11:05:13;2.13;;;1.83;;
10416;SDS011;62605;49.432;8.680;2023-04-15T11:07:49;2.72;;;1.55;;
10416;SDS011;62605;49.432;8.680;2023-04-15T11:13:20;3.45;;;1.38;;
10416;SDS011;62605;49.432;8.680;2023-04-15T11:15:58;2.15;;;1.60;;
10416;SDS011;62605;49.432;8.680;2023-04-15T11:18:27;2.83;;;1.60;;
10416;SDS011;62605;49.432;8.680;2023-04-15T11:20:59;2.33;;;1.48;;
10416;SDS011;62605;49.432;8.680;2023-04-15T11:23:29;2.17;;;1.40;;
10416;SDS011;62605;49.432;8.680;2023-04-15T11:25:58;4.72;;;1.50;;
10416;SDS011;62605;49.432;8.680;2023-04-15T11:28:27;1.48;;;1.38;;
10416;SDS011;62605;49.432;8.680;2023-04-15T11:30:54;1.90;;;1.40;;
10416;SDS011;62605;49.432;8.680;2023-04-15T11:33:23;1.48;;;1.30;;
10416;SDS011;62605;49.432;8.680;2023-04-15T11:35:51;3.00;;;1.27;;
10416;SDS011;62605;49.432;8.680;2023-04-15T11:38:21;1.53;;;1.37;;
10416;SDS011;62605;49.432;8.680;2023-04-15T11:40:49;2.50;;;1.53;;
10416;SDS011;62605;49.432;8.680;2023-04-15T11:43:18;1.73;;;1.40;;
10416;SDS011;62605;49.432;8.680;2023-04-15T11:45:47;2.93;;;1.13;;
10416;SDS011;62605;49.432;8.680;2023-04-15T11:48:16;1.80;;;1.27;;
10416;SDS011;62605;49.432;8.680;2023-04-15T11:50:44;1.03;;;1.00;;
10416;SDS011;62605;49.432;8.680;2023-04-15T11:53:12;1.83;;;1.00;;
10416;SDS011;62605;49.432;8.680;2023-04-15T11:55:42;1.65;;;1.17;;
10416;SDS011;62605;49.432;8.680;2023-04-15T11:58:11;1.90;;;1.17;;
10416;SDS011;62605;49.432;8.680;2023-04-15T12:00:40;1.45;;;1.25;;
10416;SDS011;62605;49.432;8.680;2023-04-15T12:03:18;2.67;;;1.20;;
10416;SDS011;62605;49.432;8.680;2023-04-15T12:06:03;2.10;;;1.27;;
10416;SDS011;62605;49.432;8.680;2023-04-15T12:11:32;2.53;;;1.20;;
10416;SDS011;62605;49.432;8.680;2023-04-15T12:14:05;1.52;;;1.20;;
10416;SDS011;62605;49.432;8.680;2023-04-15T12:16:38;3.60;;;1.23;;
10416;SDS011;62605;49.432;8.680;2023-04-15T12:19:08;3.63;;;1.65;;
10416;SDS011;62605;49.432;8.680;2023-04-15T12:21:38;2.60;;;1.25;;
10416;SDS011;62605;49.432;8.680;2023-04-15T12:24:06;3.15;;;1.67;;
10416;SDS011;62605;49.432;8.680;2023-04-15T12:26:37;3.67;;;1.65;;
10416;SDS011;62605;49.432;8.680;2023-04-15T12:29:09;2.33;;;1.50;;
10416;SDS011;62605;49.432;8.680;2023-04-15T12:31:45;2.10;;;1.60;;
10416;SDS011;62605;49.432;8.680;2023-04-15T12:34:17;1.05;;;0.98;;
10416;SDS011;62605;49.432;8.680;2023-04-15T12:36:45;1.52;;;1.42;;
10416;SDS011;62605;49.432;8.680;2023-04-15T12:39:12;1.63;;;1.33;;
10416;SDS011;62605;49.432;8.680;2023-04-15T12:41:41;1.20;;;1.10;;
10416;SDS011;62605;49.432;8.680;2023-04-15T12:44:09;1.17;;;1.13;;
10416;SDS011;62605;49.432;8.680;2023-04-15T12:46:36;1.70;;;1.20;;
10416;SDS011;62605;49.432;8.680;2023-04-15T12:49:03;1.20;;;1.10;;
10416;SDS011;62605;49.432;8.680;2023-04-15T12:51:30;1.40;;;1.30;;
10416;SDS011;62605;49.432;8.680;2023-04-15T12:53:57;1.23;;;0.90;;
10416;SDS011;62605;49.432;8.680;2023-04-15T12:56:24;1.07;;;0.97;;
10416;SDS011;62605;49.432;8.680;2023-04-15T12:58:52;1.60;;;1.20;;
10416;SDS011;62605;49.432;8.680;2023-04-15T13:01:19;1.53;;;1.10;;
10416;SDS011;62605;49.432;8.680;2023-04-15T13:03:47;1.58;;;0.98;;
10416;SDS011;62605;49.432;8.680;2023-04-15T13:06:15;1.10;;;0.90;;
10416;SDS011;62605;49.432;8.680;2023-04-15T13:08:42;1.10;;;1.00;;
10416;SDS011;62605;49.432;8.680;2023-04-15T13:11:09;2.07;;;1.07;;
10416;SDS011;62605;49.432;8.680;2023-04-15T13:13:36;1.70;;;1.10;;
10416;SDS011;62605;49.432;8.680;2023-04-15T13:16:05;0.80;;;0.80;;
10416;SDS011;62605;49.432;8.680;2023-04-15T13:18:33;1.70;;;1.00;;
10416;SDS011;62605;49.432;8.680;2023-04-15T13:21:00;2.27;;;1.03;;
10416;SDS011;62605;49.432;8.680;2023-04-15T13:23:28;1.10;;;1.00;;
10416;SDS011;62605;49.432;8.680;2023-04-15T13:25:55;1.20;;;1.08;;
10416;SDS011;62605;49.432;8.680;2023-04-15T13:28:23;1.17;;;0.97;;
10416;SDS011;62605;49.432;8.680;2023-04-15T13:30:50;0.77;;;0.77;;
10416;SDS011;62605;49.432;8.680;2023-04-15T13:33:19;1.07;;;0.97;;
10416;SDS011;62605;49.432;8.680;2023-04-15T13:35:46;2.50;;;1.00;;
10416;SDS011;62605;49.432;8.680;2023-04-15T13:38:13;1.25;;;1.00;;
10416;SDS011;62605;49.432;8.680;2023-04-15T13:40:40;1.83;;;1.10;;
10416;SDS011;62605;49.432;8.680;2023-04-15T13:43:07;2.22;;;0.90;;
10416;SDS011;62605;49.432;8.680;2023-04-15T13:45:35;1.33;;;1.08;;
10416;SDS011;62605;49.432;8.680;2023-04-15T13:48:03;0.90;;;0.90;;
10416;SDS011;62605;49.432;8.680;2023-04-15T13:50:33;1.20;;;1.02;;
10416;SDS011;62605;49.432;8.680;2023-04-15T13:53:00;0.70;;;0.70;;
10416;SDS011;62605;49.432;8.680;2023-04-15T13:55:27;1.35;;;1.02;;
10416;SDS011;62605;49.432;8.680;2023-04-15T13:57:55;0.77;;;0.77;;
10416;SDS011;62605;49.432;8.680;2023-04-15T14:00:22;1.00;;;1.00;;
10416;SDS011;62605;49.432;8.680;2023-04-15T14:02:50;0.90;;;0.90;;
10416;SDS011;62605;49.432;8.680;2023-04-15T14:05:17;2.27;;;0.70;;
10416;SDS011;62605;49.432;8.680;2023-04-15T14:07:46;2.40;;;1.00;;
10416;SDS011;62605;49.432;8.680;2023-04-15T14:10:13;0.80;;;0.80;;
10416;SDS011;62605;49.432;8.680;2023-04-15T14:12:42;0.95;;;0.82;;
10416;SDS011;62605;49.432;8.680;2023-04-15T14:15:09;1.27;;;1.00;;
10416;SDS011;62605;49.432;8.680;2023-04-15T14:17:36;0.70;;;0.70;;
10416;SDS011;62605;49.432;8.680;2023-04-15T14:20:05;0.63;;;0.63;;
10416;SDS011;62605;49.432;8.680;2023-04-15T14:22:34;0.73;;;0.73;;
10416;SDS011;62605;49.432;8.680;2023-04-15T14:25:02;0.75;;;0.75;;
10416;SDS011;62605;49.432;8.680;2023-04-15T14:27:30;0.90;;;0.82;;
10416;SDS011;62605;49.432;8.680;2023-04-15T14:29:58;0.90;;;0.90;;
10416;SDS011;62605;49.432;8.680;2023-04-15T14:32:26;1.77;;;1.08;;
10416;SDS011;62605;49.432;8.680;2023-04-15T14:34:53;0.97;;;0.97;;
10416;SDS011;62605;49.432;8.680;2023-04-15T14:37:22;0.90;;;0.90;;
10416;SDS011;62605;49.432;8.680;2023-04-15T14:39:50;1.07;;;0.90;;
10416;SDS011;62605;49.432;8.680;2023-04-15T14:42:20;1.17;;;1.00;;
10416;SDS011;62605;49.432;8.680;2023-04-15T14:44:47;1.00;;;1.00;;
10416;SDS011;62605;49.432;8.680;2023-04-15T14:47:14;1.00;;;1.00;;
10416;SDS011;62605;49.432;8.680;2023-04-15T14:49:41;1.67;;;0.97;;
10416;SDS011;62605;49.432;8.680;2023-04-15T14:52:09;1.07;;;1.00;;
10416;SDS011;62605;49.432;8.680;2023-04-15T14:54:36;0.90;;;0.90;;
10416;SDS011;62605;49.432;8.680;2023-04-15T14:57:03;2.23;;;1.30;;
10416;SDS011;62605;49.432;8.680;2023-04-15T14:59:40;1.07;;;0.97;;
10416;SDS011;62605;49.432;8.680;2023-04-15T15:02:08;2.10;;;1.07;;
10416;SDS011;62605;49.432;8.680;2023-04-15T15:04:38;1.43;;;1.00;;
10416;SDS011;62605;49.432;8.680;2023-04-15T15:07:05;2.40;;;0.97;;
10416;SDS011;62605;49.432;8.680;2023-04-15T15:09:32;1.00;;;0.90;;
10416;SDS011;62605;49.432;8.680;2023-04-15T15:12:00;1.13;;;1.00;;
10416;SDS011;62605;49.432;8.680;2023-04-15T15:14:27;0.80;;;0.80;;
10416;SDS011;62605;49.432;8.680;2023-04-15T15:16:57;1.00;;;1.00;;
10416;SDS011;62605;49.432;8.680;2023-04-15T15:19:25;1.20;;;1.10;;
10416;SDS011;62605;49.432;8.680;2023-04-15T15:21:53;1.00;;;0.90;;
10416;SDS011;62605;49.432;8.680;2023-04-15T15:24:20;0.60;;;0.60;;
10416;SDS011;62605;49.432;8.680;2023-04-15T15:26:47;0.70;;;0.70;;
10416;SDS011;62605;49.432;8.680;2023-04-15T15:29:15;1.10;;;1.03;;
10416;SDS011;62605;49.432;8.680;2023-04-15T15:31:43;1.07;;;0.97;;
10416;SDS011;62605;49.432;8.680;2023-04-15T15:34:12;0.80;;;0.80;;
10416;SDS011;62605;49.432;8.680;2023-04-15T15:36:41;0.93;;;0.70;;
10416;SDS011;62605;49.432;8.680;2023-04-15T15:39:09;0.63;;;0.63;;
10416;SDS011;62605;49.432;8.680;2023-04-15T15:41:36;0.70;;;0.70;;
10416;SDS011;62605;49.432;8.680;2023-04-15T15:44:04;0.97;;;0.70;;
10416;SDS011;62605;49.432;8.680;2023-04-15T15:46:32;0.70;;;0.70;;
10416;SDS011;62605;49.432;8.680;2023-04-15T15:49:01;0.70;;;0.70;;
10416;SDS011;62605;49.432;8.680;2023-04-15T15:51:30;0.93;;;0.90;;